createdAt,value
2024-01-19T00:11:14.737Z,87.96
2024-01-19T00:26:20.768Z,89.23
2024-01-19T00:41:24.154Z,88.76
2024-01-19T00:56:33.112Z,87.06
2024-01-19T01:11:36.403Z,85.11
2024-01-19T01:26:39.807Z,86.42
2024-01-19T01:41:42.964Z,86.14
2024-01-19T01:56:46.088Z,86.61
2024-01-19T02:11:50.923Z,88.47
2024-01-19T02:26:56.357Z,83.73
2024-01-19T02:41:59.481Z,80.49
2024-01-19T02:57:02.673Z,84.77
2024-01-19T03:12:08.330Z,87.55
2024-01-19T03:27:11.722Z,85.97
2024-01-19T03:42:14.906Z,83.63
2024-01-19T03:57:18.032Z,86.36
2024-01-19T04:12:21.334Z,86.48
2024-01-19T04:27:26.793Z,84.05
2024-01-19T04:42:30.078Z,83.65
2024-01-19T04:58:24.138Z,83.99
2024-01-19T05:46:21.413Z,83.59
2024-01-19T06:01:35.060Z,88.34
2024-01-19T06:16:45.538Z,89.42
2024-01-19T06:31:49.499Z,88.64
2024-01-19T06:46:52.905Z,85.61
2024-01-19T07:01:55.977Z,83.87
2024-01-19T07:32:28.902Z,82.02
2024-01-19T07:47:33.539Z,84.47
2024-01-19T08:02:43.552Z,85.85
2024-01-19T08:17:47.507Z,81.09
2024-01-19T08:32:51.088Z,87.15
2024-01-19T08:47:57.171Z,86.45
2024-01-19T09:03:05.170Z,85.11
2024-01-19T09:18:08.968Z,83.86
2024-01-19T09:33:12.925Z,85.51
2024-01-19T09:48:22.896Z,83.81
2024-01-19T10:03:28.792Z,82.71
2024-01-19T10:18:32.238Z,83.87
2024-01-19T10:33:38.022Z,80.88
2024-01-19T10:48:41.278Z,79.23
2024-01-19T11:03:44.915Z,80.53
2024-01-19T11:18:49.026Z,81.44
2024-01-19T11:33:52.534Z,81.78
2024-01-19T11:48:56.059Z,80.79
2024-01-19T12:04:01.088Z,79.71
2024-01-19T12:19:04.358Z,80.14
2024-01-19T12:34:14.189Z,78.74
2024-01-19T12:49:17.563Z,81.16
2024-01-19T13:04:20.725Z,81.01
2024-01-19T13:19:23.998Z,79.77
2024-01-19T13:34:27.481Z,79.66
2024-01-19T13:49:32.139Z,78.80
2024-01-19T14:04:35.366Z,78.31
2024-01-19T14:19:38.678Z,79.60
2024-01-19T14:34:46.599Z,79.13
2024-01-19T14:49:54.114Z,79.41
2024-01-19T15:04:59.544Z,80.04
2024-01-19T15:35:24.229Z,80.54
2024-01-19T15:50:30.302Z,80.93
2024-01-19T16:05:33.814Z,82.69
2024-01-19T16:20:42.127Z,81.80
2024-01-19T16:36:07.959Z,82.65
2024-01-19T16:51:20.996Z,83.08
2024-01-19T17:06:24.510Z,82.88
2024-01-19T17:21:27.892Z,83.64
2024-01-19T17:36:31.349Z,84.47
2024-01-19T17:51:35.088Z,84.41
2024-01-19T18:06:38.352Z,84.25
2024-01-19T18:21:42.458Z,84.31
2024-01-19T18:36:45.964Z,83.76
2024-01-19T18:51:51.835Z,84.00
2024-01-19T19:06:58.716Z,84.18
2024-01-19T19:22:06.140Z,85.25
2024-01-19T19:37:09.767Z,85.83
2024-01-19T19:52:13.492Z,85.93
2024-01-19T20:07:16.969Z,85.71
2024-01-19T20:22:21.316Z,85.47
2024-01-19T20:37:27.859Z,85.65
2024-01-19T20:52:36.808Z,86.58
2024-01-19T21:07:40.285Z,86.31
2024-01-19T21:22:46.628Z,87.89
2024-01-19T21:37:54.593Z,88.15
2024-01-19T21:52:59.544Z,88.40
2024-01-19T22:08:03.202Z,87.64
2024-01-19T22:23:06.867Z,83.20
2024-01-19T22:38:11.219Z,87.50
2024-01-19T22:53:15.157Z,86.92
2024-01-19T23:08:20.772Z,87.31
2024-01-19T23:23:27.271Z,87.70
2024-01-19T23:38:30.847Z,87.63
2024-01-19T23:53:34.552Z,88.22
